createdAt,value
2019-02-09T00:00:27.264Z,138.23
2019-02-09T00:03:08.215Z,139.83
2019-02-09T00:05:49.091Z,139.73
2019-02-09T00:08:30.058Z,139.07
2019-02-09T00:11:10.716Z,139.60
2019-02-09T00:13:51.380Z,136.33
2019-02-09T00:16:31.872Z,137.53
2019-02-09T00:19:12.553Z,131.20
2019-02-09T00:21:53.509Z,135.07
2019-02-09T00:24:34.469Z,134.43
2019-02-09T00:27:15.556Z,131.90
2019-02-09T00:29:56.213Z,130.17
2019-02-09T00:32:37.351Z,129.07
2019-02-09T00:35:18.312Z,131.67
2019-02-09T00:37:59.370Z,136.73
2019-02-09T00:40:40.474Z,140.40
2019-02-09T00:43:21.197Z,140.73
2019-02-09T00:46:04.358Z,131.20
2019-02-09T00:48:44.886Z,129.40
2019-02-09T00:51:24.762Z,128.43
2019-02-09T00:54:05.677Z,128.73
2019-02-09T00:56:46.354Z,130.47
2019-02-09T00:59:27.315Z,131.87
2019-02-09T01:02:08.218Z,213.07
2019-02-09T01:04:49.187Z,161.77
2019-02-09T01:07:30.543Z,161.00
2019-02-09T01:10:10.814Z,158.43
2019-02-09T01:12:52.199Z,166.20
2019-02-09T01:15:33.094Z,162.47
2019-02-09T01:18:13.977Z,184.50
2019-02-09T01:20:54.996Z,168.23
2019-02-09T01:23:36.241Z,165.37
2019-02-09T01:26:16.707Z,160.43
2019-02-09T01:28:57.427Z,167.27
2019-02-09T01:31:38.604Z,151.17
2019-02-09T01:34:19.246Z,152.13
2019-02-09T01:37:00.375Z,155.47
2019-02-09T01:39:41.363Z,158.77
2019-02-09T01:42:22.631Z,151.30
2019-02-09T01:45:03.366Z,152.40
2019-02-09T01:47:43.682Z,154.37
2019-02-09T01:50:25.205Z,156.47
2019-02-09T01:53:05.997Z,151.30
2019-02-09T01:55:46.788Z,151.67
2019-02-09T01:58:28.437Z,154.43
2019-02-09T02:01:10.003Z,156.20
2019-02-09T02:03:51.113Z,148.17
2019-02-09T02:06:32.586Z,151.93
2019-02-09T02:09:13.342Z,150.83
2019-02-09T02:11:54.551Z,154.50
2019-02-09T02:14:35.757Z,153.53
2019-02-09T02:17:16.466Z,144.77
2019-02-09T02:19:57.355Z,153.03
2019-02-09T02:22:38.337Z,134.93
2019-02-09T02:25:19.418Z,131.10
2019-02-09T02:28:00.866Z,130.03
2019-02-09T02:30:42.152Z,123.20
2019-02-09T02:33:23.130Z,114.37
2019-02-09T02:36:03.975Z,108.73
2019-02-09T02:38:45.023Z,108.63
2019-02-09T02:41:25.764Z,109.47
2019-02-09T02:44:06.422Z,109.03
2019-02-09T02:46:47.713Z,107.20
2019-02-09T02:49:29.294Z,102.50
2019-02-09T02:52:10.503Z,99.77
2019-02-09T02:54:51.230Z,102.33
2019-02-09T02:57:32.098Z,98.97
2019-02-09T03:00:13.192Z,94.37
2019-02-09T03:02:54.623Z,93.73
2019-02-09T03:05:36.597Z,88.23
2019-02-09T03:08:17.532Z,93.17
2019-02-09T03:10:58.524Z,92.17
2019-02-09T03:13:39.291Z,89.70
2019-02-09T03:16:20.457Z,93.83
2019-02-09T03:19:01.751Z,103.50
2019-02-09T03:21:42.713Z,94.10
2019-02-09T03:24:23.121Z,91.47
2019-02-09T03:27:04.044Z,87.13
2019-02-09T03:29:44.828Z,92.90
2019-02-09T03:32:26.147Z,128.40
2019-02-09T03:35:06.785Z,139.03
2019-02-09T03:37:47.522Z,110.17
2019-02-09T03:40:28.748Z,90.00
2019-02-09T03:43:09.994Z,90.80
2019-02-09T03:45:50.960Z,88.20
2019-02-09T03:48:31.678Z,85.27
2019-02-09T03:51:13.103Z,82.73
2019-02-09T03:53:54.170Z,81.10
2019-02-09T03:56:34.774Z,99.30
2019-02-09T03:59:16.096Z,122.03
2019-02-09T04:01:56.802Z,83.33
2019-02-09T04:04:37.782Z,82.57
2019-02-09T04:07:18.977Z,80.07
2019-02-09T04:10:00.244Z,79.37
2019-02-09T04:12:41.315Z,81.13
2019-02-09T04:15:22.465Z,81.30
2019-02-09T04:18:03.756Z,79.60
2019-02-09T04:20:44.155Z,85.17
2019-02-09T04:23:25.014Z,82.63
2019-02-09T04:26:05.534Z,77.03
2019-02-09T04:28:46.960Z,79.00
2019-02-09T04:31:27.965Z,75.90
2019-02-09T04:34:08.907Z,77.00
2019-02-09T04:36:50.145Z,76.80
2019-02-09T04:39:31.146Z,78.40
2019-02-09T04:42:11.741Z,75.77
2019-02-09T04:44:52.730Z,80.70
2019-02-09T04:47:33.374Z,77.27
2019-02-09T04:50:13.671Z,77.57
2019-02-09T04:52:54.775Z,83.87
2019-02-09T04:55:35.698Z,79.90
2019-02-09T04:58:16.646Z,74.83
2019-02-09T05:00:57.604Z,67.60
2019-02-09T05:03:37.875Z,70.90
2019-02-09T05:06:18.331Z,69.97
2019-02-09T05:08:58.891Z,69.53
2019-02-09T05:11:40.091Z,70.10
2019-02-09T05:14:21.032Z,74.60
2019-02-09T05:17:01.413Z,73.37
2019-02-09T05:19:42.631Z,71.30
2019-02-09T05:22:23.347Z,70.57
2019-02-09T05:25:04.325Z,68.93
2019-02-09T05:27:46.377Z,71.43
2019-02-09T05:30:27.913Z,70.17
2019-02-09T05:33:09.042Z,69.17
2019-02-09T05:39:05.285Z,72.17
2019-02-09T05:41:47.052Z,80.53
2019-02-09T05:44:28.226Z,71.10
2019-02-09T06:00:34.270Z,70.43
2019-02-09T06:03:15.858Z,71.63
2019-02-09T06:05:56.816Z,66.97
2019-02-09T06:08:37.364Z,72.80
2019-02-09T06:11:19.247Z,69.87
2019-02-09T06:13:59.951Z,69.77
2019-02-09T06:16:40.878Z,71.87
2019-02-09T06:19:21.897Z,63.50
2019-02-09T06:22:02.877Z,72.33
2019-02-09T06:24:44.047Z,74.37
2019-02-09T06:27:25.028Z,71.07
2019-02-09T06:30:05.672Z,69.13
2019-02-09T06:32:46.298Z,67.70
2019-02-09T06:35:27.335Z,76.23
2019-02-09T06:38:07.716Z,78.13
2019-02-09T06:40:49.194Z,77.03
2019-02-09T06:43:30.556Z,82.50
2019-02-09T06:46:14.330Z,80.57
2019-02-09T06:48:55.273Z,90.13
2019-02-09T06:51:35.334Z,77.50
2019-02-09T06:54:16.297Z,79.17
2019-02-09T06:56:56.862Z,84.73
2019-02-09T06:59:37.981Z,126.00
2019-02-09T07:02:19.234Z,82.17
2019-02-09T07:05:00.127Z,77.80
2019-02-09T07:07:40.786Z,79.57
2019-02-09T07:10:21.446Z,80.27
2019-02-09T07:13:02.089Z,77.37
2019-02-09T07:15:42.766Z,73.33
2019-02-09T07:18:24.061Z,72.70
2019-02-09T07:21:05.175Z,71.27
2019-02-09T07:23:45.885Z,70.87
2019-02-09T07:26:26.858Z,92.20
2019-02-09T07:29:07.766Z,65.37
2019-02-09T07:31:48.280Z,68.23
2019-02-09T07:34:30.122Z,67.80
2019-02-09T07:37:11.270Z,62.30
2019-02-09T07:39:52.024Z,63.50
2019-02-09T07:42:33.178Z,58.40
2019-02-09T07:45:14.181Z,65.07
2019-02-09T07:47:54.841Z,71.20
2019-02-09T07:50:35.417Z,64.87
2019-02-09T07:53:16.091Z,65.57
2019-02-09T07:55:56.737Z,62.77
2019-02-09T08:14:58.507Z,74.30
2019-02-09T08:17:39.473Z,75.33
2019-02-09T08:20:20.185Z,80.13
2019-02-09T08:23:01.102Z,94.93
2019-02-09T08:25:42.625Z,116.37
2019-02-09T08:28:23.576Z,117.80
2019-02-09T08:31:03.954Z,128.53
2019-02-09T08:33:44.539Z,144.27
2019-02-09T08:36:30.679Z,136.80
2019-02-09T08:39:12.541Z,133.00
2019-02-09T08:41:53.361Z,130.10
2019-02-09T08:44:35.111Z,138.40
2019-02-09T08:47:16.971Z,135.50
2019-02-09T08:49:57.398Z,144.47
2019-02-09T08:52:38.627Z,141.43
2019-02-09T08:55:19.901Z,144.60
2019-02-09T08:58:01.844Z,140.60
2019-02-09T09:00:42.773Z,144.63
2019-02-09T09:03:25.499Z,140.43
2019-02-09T09:06:05.720Z,139.60
2019-02-09T09:08:46.749Z,136.73
2019-02-09T09:11:28.051Z,145.20
2019-02-09T09:14:08.627Z,138.10
2019-02-09T09:16:49.851Z,141.77
2019-02-09T09:19:30.572Z,141.43
2019-02-09T09:22:11.506Z,139.10
2019-02-09T09:24:51.696Z,132.83
2019-02-09T09:27:33.715Z,133.70
2019-02-09T09:30:13.778Z,137.90
2019-02-09T09:32:54.339Z,131.50
2019-02-09T09:35:34.698Z,140.47
2019-02-09T09:38:15.137Z,138.50
2019-02-09T09:40:55.853Z,133.80
2019-02-09T09:43:35.871Z,138.20
2019-02-09T09:46:15.941Z,130.60
2019-02-09T09:48:56.037Z,128.60
2019-02-09T09:51:36.339Z,138.27
2019-02-09T09:54:16.524Z,128.30
2019-02-09T09:56:56.977Z,129.27
2019-02-09T09:59:37.842Z,138.00
2019-02-09T10:02:18.851Z,134.90
2019-02-09T10:04:59.186Z,131.83
2019-02-09T10:07:39.885Z,126.80
2019-02-09T10:10:20.326Z,132.17
2019-02-09T10:13:01.350Z,125.60
2019-02-09T10:15:41.863Z,126.53
2019-02-09T10:18:22.438Z,134.53
2019-02-09T10:21:03.412Z,151.57
2019-02-09T10:23:45.416Z,146.80
2019-02-09T10:26:26.584Z,134.37
2019-02-09T10:29:08.491Z,126.10
2019-02-09T10:31:49.666Z,128.83
2019-02-09T10:34:30.943Z,135.37
2019-02-09T10:37:11.837Z,130.53
2019-02-09T10:39:53.175Z,133.67
2019-02-09T10:42:34.154Z,141.03
2019-02-09T10:45:14.793Z,138.73
2019-02-09T10:47:55.951Z,144.57
2019-02-09T10:50:37.028Z,136.10
2019-02-09T10:53:18.156Z,138.27
2019-02-09T10:55:59.603Z,132.97
2019-02-09T10:58:40.538Z,135.50
2019-02-09T11:01:22.157Z,137.87
2019-02-09T11:04:02.997Z,138.50
2019-02-09T11:06:44.156Z,142.47
2019-02-09T11:09:24.476Z,136.40
2019-02-09T11:12:05.281Z,140.83
2019-02-09T11:14:46.360Z,138.37
2019-02-09T11:17:27.344Z,137.53
2019-02-09T11:20:07.895Z,136.57
2019-02-09T11:22:48.657Z,140.70
2019-02-09T11:25:29.829Z,138.20
2019-02-09T11:28:10.820Z,138.53
2019-02-09T11:30:51.746Z,140.37
2019-02-09T11:33:32.466Z,139.87
2019-02-09T11:36:13.649Z,138.53
2019-02-09T11:38:55.615Z,156.83
2019-02-09T11:41:36.533Z,171.47
2019-02-09T11:44:17.278Z,150.63
2019-02-09T11:46:58.470Z,152.23
2019-02-09T11:49:39.029Z,145.57
2019-02-09T11:52:19.902Z,142.43
2019-02-09T11:55:00.675Z,143.77
2019-02-09T11:57:41.685Z,145.97
2019-02-09T12:00:22.648Z,143.97
2019-02-09T12:03:13.892Z,142.93
2019-02-09T12:05:45.189Z,140.63
2019-02-09T12:08:25.815Z,139.60
2019-02-09T12:11:06.817Z,142.73
2019-02-09T12:13:55.022Z,134.90
2019-02-09T12:16:28.735Z,139.90
2019-02-09T12:19:09.691Z,133.23
2019-02-09T12:21:50.937Z,138.17
2019-02-09T12:24:31.905Z,135.53
2019-02-09T12:27:12.166Z,137.50
2019-02-09T12:29:53.504Z,138.17
2019-02-09T12:32:34.522Z,146.03
2019-02-09T12:35:15.734Z,134.10
2019-02-09T12:37:56.059Z,133.00
2019-02-09T12:40:36.696Z,139.33
2019-02-09T12:43:17.656Z,133.40
2019-02-09T12:45:58.934Z,148.57
2019-02-09T12:48:39.962Z,141.73
2019-02-09T12:51:20.568Z,152.60
2019-02-09T12:54:01.814Z,150.50
2019-02-09T12:56:42.818Z,147.70
2019-02-09T12:59:23.604Z,154.03
2019-02-09T13:02:05.341Z,146.57
2019-02-09T13:04:46.254Z,152.27
2019-02-09T13:07:27.589Z,143.33
2019-02-09T13:10:08.318Z,140.27
2019-02-09T13:12:49.131Z,162.03
2019-02-09T13:15:30.151Z,154.43
2019-02-09T13:18:11.427Z,172.53
2019-02-09T13:20:52.352Z,156.07
2019-02-09T13:23:33.279Z,163.60
2019-02-09T13:26:14.272Z,199.37
2019-02-09T13:28:55.896Z,209.17
2019-02-09T13:31:36.213Z,207.43
2019-02-09T13:34:16.978Z,208.27
2019-02-09T13:36:57.847Z,196.30
2019-02-09T13:39:38.647Z,190.43
2019-02-09T13:42:19.428Z,188.47
2019-02-09T13:45:00.417Z,182.50
2019-02-09T13:47:41.214Z,182.03
2019-02-09T13:50:22.304Z,176.33
2019-02-09T13:53:02.998Z,161.33
2019-02-09T13:55:43.667Z,164.03
2019-02-09T13:58:24.609Z,158.27
2019-02-09T14:01:05.267Z,158.53
2019-02-09T14:03:46.820Z,157.00
2019-02-09T14:06:27.847Z,151.03
2019-02-09T14:09:08.497Z,153.50
2019-02-09T14:11:49.346Z,150.27
2019-02-09T14:14:29.826Z,145.60
2019-02-09T14:17:10.753Z,145.20
2019-02-09T14:19:53.327Z,144.70
2019-02-09T14:22:34.798Z,143.00
2019-02-09T14:25:15.294Z,136.53
2019-02-09T14:27:56.543Z,152.53
2019-02-09T14:30:37.995Z,154.07
2019-02-09T14:33:18.711Z,158.17
2019-02-09T14:35:59.405Z,150.10
2019-02-09T14:38:40.879Z,149.93
2019-02-09T14:41:21.967Z,143.13
2019-02-09T14:44:03.118Z,142.73
2019-02-09T14:46:43.490Z,156.50
2019-02-09T14:49:24.442Z,145.83
2019-02-09T14:52:04.808Z,152.87
2019-02-09T14:54:45.783Z,149.90
2019-02-09T14:57:26.938Z,159.83
2019-02-09T15:00:07.650Z,157.97
2019-02-09T15:02:53.512Z,146.83
2019-02-09T15:05:30.192Z,142.33
2019-02-09T15:08:11.097Z,138.77
2019-02-09T15:10:51.968Z,137.23
2019-02-09T15:13:33.126Z,131.43
2019-02-09T15:16:13.980Z,129.87
2019-02-09T15:18:55.067Z,130.60
2019-02-09T15:21:35.612Z,124.50
2019-02-09T15:24:16.875Z,122.63
2019-02-09T15:26:57.835Z,125.43
2019-02-09T15:29:38.856Z,129.30
2019-02-09T15:32:20.070Z,122.47
2019-02-09T15:35:01.408Z,122.67
2019-02-09T15:37:42.379Z,127.70
2019-02-09T15:40:24.583Z,124.70
2019-02-09T15:43:05.559Z,125.10
2019-02-09T15:45:46.815Z,124.33
2019-02-09T15:48:27.896Z,121.90
2019-02-09T15:51:09.405Z,122.60
2019-02-09T15:53:50.621Z,118.80
2019-02-09T15:56:31.268Z,136.23
2019-02-09T15:59:11.912Z,119.47
2019-02-09T16:01:52.398Z,118.07
2019-02-09T16:04:33.498Z,111.03
2019-02-09T16:07:14.235Z,108.97
2019-02-09T16:09:55.096Z,109.87
2019-02-09T16:12:35.877Z,101.20
2019-02-09T16:15:16.719Z,105.43
2019-02-09T16:17:57.827Z,102.77
2019-02-09T16:20:38.972Z,104.30
2019-02-09T16:23:20.263Z,101.33
2019-02-09T16:26:01.173Z,104.70
2019-02-09T16:28:41.905Z,106.50
2019-02-09T16:31:22.898Z,103.47
2019-02-09T16:34:03.574Z,102.67
2019-02-09T16:36:44.437Z,102.53
2019-02-09T16:39:25.223Z,93.70
2019-02-09T16:42:06.966Z,94.30
2019-02-09T16:44:48.219Z,91.57
2019-02-09T16:47:29.212Z,92.57
2019-02-09T16:50:09.405Z,87.43
2019-02-09T16:52:49.854Z,86.53
2019-02-09T16:55:30.824Z,78.37
2019-02-09T16:58:16.538Z,69.80
2019-02-09T17:00:59.484Z,67.23
2019-02-09T17:03:40.403Z,67.87
2019-02-09T17:06:23.038Z,66.80
2019-02-09T17:09:02.617Z,65.33
2019-02-09T17:11:43.970Z,64.40
2019-02-09T17:14:24.618Z,63.70
2019-02-09T17:17:05.488Z,65.97
2019-02-09T17:19:46.923Z,60.80
2019-02-09T17:22:30.784Z,62.03
2019-02-09T17:25:16.907Z,59.43
2019-02-09T17:28:04.314Z,57.63
2019-02-09T17:30:46.472Z,51.77
2019-02-09T17:33:26.975Z,49.00
2019-02-09T17:36:07.840Z,50.67
2019-02-09T17:38:51.133Z,47.20
2019-02-09T17:41:32.935Z,45.87
2019-02-09T17:44:14.044Z,45.50
2019-02-09T17:46:54.620Z,47.30
2019-02-09T17:49:35.257Z,46.53
2019-02-09T17:52:15.636Z,44.57
2019-02-09T17:54:56.423Z,44.33
2019-02-09T17:57:37.287Z,42.43
2019-02-09T18:00:18.014Z,41.30
2019-02-09T18:02:58.814Z,41.40
2019-02-09T18:05:39.513Z,41.27
2019-02-09T18:08:20.083Z,39.43
2019-02-09T18:11:00.870Z,40.13
2019-02-09T18:13:42.294Z,40.53
2019-02-09T18:16:23.407Z,40.57
2019-02-09T18:19:04.103Z,41.93
2019-02-09T18:21:45.958Z,39.47
2019-02-09T18:24:27.422Z,39.17
2019-02-09T18:27:08.101Z,41.47
2019-02-09T18:29:48.846Z,41.43
2019-02-09T18:32:29.746Z,40.93
2019-02-09T18:37:52.913Z,41.57
2019-02-09T18:40:34.280Z,40.07
2019-02-09T18:43:15.228Z,40.93
2019-02-09T18:45:57.757Z,43.57
2019-02-09T18:48:37.996Z,43.33
2019-02-09T18:51:18.954Z,42.77
2019-02-09T18:53:59.493Z,41.60
2019-02-09T18:56:40.938Z,41.47
2019-02-09T18:59:21.869Z,42.00
2019-02-09T19:02:02.368Z,41.80
2019-02-09T19:04:43.658Z,43.90
2019-02-09T19:07:23.896Z,42.90
2019-02-09T19:10:04.971Z,42.67
2019-02-09T19:12:46.084Z,42.60
2019-02-09T19:15:26.709Z,39.73
2019-02-09T19:18:07.590Z,40.33
2019-02-09T19:20:48.695Z,40.27
2019-02-09T19:23:29.515Z,40.67
2019-02-09T19:26:10.637Z,41.00
2019-02-09T19:28:51.422Z,40.13
2019-02-09T19:31:32.157Z,42.23
2019-02-09T19:34:13.019Z,44.03
2019-02-09T19:36:53.409Z,41.37
2019-02-09T19:39:34.320Z,42.47
2019-02-09T19:42:15.646Z,43.43
2019-02-09T19:44:56.878Z,40.00
2019-02-09T19:47:37.321Z,41.30
2019-02-09T19:50:18.367Z,41.53
2019-02-09T19:52:58.873Z,43.10
2019-02-09T19:55:39.792Z,42.80
2019-02-09T19:58:21.042Z,44.03
2019-02-09T20:01:02.636Z,45.17
2019-02-09T20:03:43.393Z,41.43
2019-02-09T20:06:24.027Z,41.93
2019-02-09T20:09:04.452Z,43.53
2019-02-09T20:11:45.767Z,42.27
2019-02-09T20:14:26.497Z,41.70
2019-02-09T20:17:07.561Z,43.97
2019-02-09T20:19:47.829Z,41.20
2019-02-09T20:22:28.124Z,42.30
2019-02-09T20:25:08.388Z,43.47
2019-02-09T20:27:49.527Z,43.03
2019-02-09T20:30:30.424Z,41.80
2019-02-09T20:33:10.952Z,41.93
2019-02-09T20:35:51.387Z,40.17
2019-02-09T20:38:32.014Z,41.30
2019-02-09T20:41:12.767Z,40.57
2019-02-09T20:43:53.657Z,44.73
2019-02-09T20:46:34.292Z,43.97
2019-02-09T20:49:14.805Z,40.80
2019-02-09T20:51:55.647Z,40.20
2019-02-09T20:54:36.074Z,41.47
2019-02-09T20:57:16.152Z,39.80
2019-02-09T20:59:56.815Z,41.00
2019-02-09T21:02:37.496Z,40.27
2019-02-09T21:05:18.350Z,40.43
2019-02-09T21:07:59.456Z,40.27
2019-02-09T21:10:40.229Z,38.77
2019-02-09T21:13:21.226Z,39.30
2019-02-09T21:16:02.961Z,37.23
2019-02-09T21:18:42.555Z,37.37
2019-02-09T21:21:22.707Z,36.03
2019-02-09T21:24:02.592Z,37.33
2019-02-09T21:26:42.623Z,36.20
2019-02-09T21:29:22.994Z,35.93
2019-02-09T21:32:03.151Z,36.27
2019-02-09T21:34:43.267Z,36.97
2019-02-09T21:37:23.169Z,35.97
2019-02-09T21:40:03.260Z,36.10
2019-02-09T21:42:43.349Z,36.13
2019-02-09T21:45:23.338Z,37.37
2019-02-09T21:48:03.478Z,37.40
2019-02-09T21:50:43.464Z,37.23
2019-02-09T21:53:23.577Z,40.07
2019-02-09T21:56:03.546Z,37.90
2019-02-09T21:58:44.174Z,37.20
2019-02-09T22:01:25.005Z,38.03
2019-02-09T22:04:05.497Z,38.63
2019-02-09T22:06:46.312Z,38.77
2019-02-09T22:09:26.742Z,37.63
2019-02-09T22:12:07.412Z,42.17
2019-02-09T22:14:48.013Z,41.03
2019-02-09T22:17:28.584Z,42.93
2019-02-09T22:20:08.907Z,41.40
2019-02-09T22:22:49.988Z,43.73
2019-02-09T22:25:30.506Z,43.30
2019-02-09T22:28:11.283Z,44.60
2019-02-09T22:30:51.555Z,43.13
2019-02-09T22:33:32.186Z,44.40
2019-02-09T22:36:12.492Z,45.80
2019-02-09T22:38:53.303Z,47.67
2019-02-09T22:41:34.405Z,45.60
2019-02-09T22:44:15.038Z,46.97
2019-02-09T22:46:55.027Z,46.87
2019-02-09T22:49:35.732Z,45.53
2019-02-09T22:52:16.428Z,46.23
2019-02-09T22:54:57.151Z,46.77
2019-02-09T22:57:38.153Z,45.60
2019-02-09T23:00:19.137Z,49.27
2019-02-09T23:02:59.800Z,47.60
2019-02-09T23:05:40.563Z,48.60
2019-02-09T23:08:21.437Z,51.07
2019-02-09T23:11:01.767Z,50.30
2019-02-09T23:13:42.081Z,53.73
2019-02-09T23:16:22.507Z,54.97
2019-02-09T23:19:03.305Z,55.37
2019-02-09T23:21:43.956Z,55.07
2019-02-09T23:24:24.882Z,55.07
2019-02-09T23:27:05.517Z,52.40
2019-02-09T23:29:46.565Z,53.80
2019-02-09T23:32:26.925Z,53.27
2019-02-09T23:35:07.586Z,53.30
2019-02-09T23:37:48.165Z,52.10
2019-02-09T23:40:28.738Z,52.10
2019-02-09T23:43:09.391Z,54.87
2019-02-09T23:45:50.265Z,55.50
2019-02-09T23:48:30.623Z,57.60
2019-02-09T23:51:11.014Z,110.33
2019-02-09T23:53:51.757Z,105.53
2019-02-09T23:56:32.721Z,118.13
2019-02-09T23:59:13.350Z,130.13
